Archival Weather

Aeroparque Jorge Newbery

Buenos Aires, Argentina (SABE)

Report from: Sunday, March 19, 2023 2:00 AM -03
Current time: Wednesday, May 29, 2024 4:44 AM -03

Current weather – Weather history – Daily summaries
Weather forecast

Temperature25.0°C (77.0°F)
Dew point22.0°C (71.6°F)
Winds 6 kts (3.1 m/s, 6.9 mph) East-Northeast (60°)
Visibility6.2 mi. (10 km)
Clouds Few clouds 1,300 ft. (396 m)
Altimeter29.88 in.Hg (1012 mB)
Relative humidity83 %
Density altitude1,556 ft. (474 m)
Remarks Corrected report
No significant changes expected in the next two hours
Flight conditions Visual Meteorological Conditions
Raw dataCOR SABE 190500Z 06006KT 9999 FEW013 25/22 Q1012 NOSIG RMK PP000
An error has occurred. This application may no longer respond until reloaded. Reload 🗙